Time;durP1;ratioP1;P1;durP2;ratioP2;P2;SDS_P1;SDS_P2;PMS_P1;PMS_P2;Temp;Humidity;BMP_temperature;BMP_pressure;BME280_temperature;BME280_humidity;BME280_pressure;Samples;Min_cycle;Max_cycle;Signal;HPM_P1;HPM_P2
2022/07/18 00:01:42;;;;;;;5.75;2.50;;;26.40;84.20;;;;;;4956863;28;20044;-73
2022/07/18 00:04:08;;;;;;;7.35;3.22;;;26.20;84.50;;;;;;4958698;28;20035;-73
2022/07/18 00:06:35;;;;;;;6.57;3.22;;;26.30;84.50;;;;;;4965573;28;20047;-73
2022/07/18 00:09:00;;;;;;;5.22;3.00;;;26.20;84.40;;;;;;4970445;28;20082;-73
2022/07/18 00:11:26;;;;;;;5.15;3.35;;;26.10;84.80;;;;;;4976111;28;20381;-73
2022/07/18 00:13:51;;;;;;;8.48;3.28;;;26.00;85.10;;;;;;4951196;28;20482;-73
2022/07/18 00:16:18;;;;;;;7.28;3.42;;;26.00;85.10;;;;;;4962132;28;20022;-73
2022/07/18 00:18:44;;;;;;;5.72;2.90;;;26.00;85.10;;;;;;4975116;28;20388;-73
2022/07/18 00:21:09;;;;;;;5.82;3.35;;;26.00;85.00;;;;;;4976279;28;20117;-73
2022/07/18 00:23:35;;;;;;;4.47;3.10;;;25.80;85.40;;;;;;4959314;28;20046;-73
2022/07/18 00:26:02;;;;;;;4.97;2.97;;;25.70;85.50;;;;;;4971331;28;20034;-73
2022/07/18 00:28:28;;;;;;;4.03;2.78;;;25.70;85.70;;;;;;4960505;28;20489;-73
2022/07/18 00:30:53;;;;;;;4.82;2.90;;;25.70;85.60;;;;;;4956511;29;20123;-73
2022/07/18 00:33:19;;;;;;;6.20;3.38;;;25.60;85.90;;;;;;4968892;28;20362;-73
2022/07/18 00:35:45;;;;;;;4.40;3.05;;;25.70;85.90;;;;;;4974509;28;20069;-73
2022/07/18 00:38:11;;;;;;;5.15;3.35;;;25.70;85.90;;;;;;4970353;28;20466;-73
2022/07/18 00:40:37;;;;;;;5.68;3.13;;;25.80;86.00;;;;;;4962768;28;20537;-73
2022/07/18 00:43:03;;;;;;;5.18;3.20;;;25.80;85.90;;;;;;4963875;28;20386;-73
2022/07/18 00:45:29;;;;;;;7.10;3.50;;;25.70;85.90;;;;;;4968187;28;20030;-73
2022/07/18 00:47:55;;;;;;;5.25;3.38;;;25.70;86.00;;;;;;4966685;28;20110;-73
2022/07/18 00:50:22;;;;;;;5.45;3.33;;;25.50;86.30;;;;;;4971353;28;20182;-73
2022/07/18 00:52:47;;;;;;;4.65;3.03;;;25.40;86.70;;;;;;4963227;28;20057;-73
2022/07/18 00:55:14;;;;;;;4.15;2.80;;;25.30;86.90;;;;;;4973940;28;20045;-73
2022/07/18 00:57:40;;;;;;;8.93;3.22;;;25.30;86.80;;;;;;4974150;28;20031;-73
2022/07/18 01:03:14;;;;;;;8.85;3.00;;;25.40;86.80;;;;;;4952249;29;20545;-73
2022/07/18 01:05:40;;;;;;;5.97;2.97;;;25.40;86.90;;;;;;4934873;29;20079;-73
2022/07/18 01:08:05;;;;;;;6.82;3.03;;;25.40;86.90;;;;;;4953846;28;20050;-73
2022/07/18 01:10:31;;;;;;;5.43;3.22;;;25.50;86.80;;;;;;4973865;28;20042;-73
2022/07/18 01:12:57;;;;;;;7.60;3.38;;;25.50;86.80;;;;;;4991853;28;20089;-73
2022/07/18 01:15:23;;;;;;;5.15;3.30;;;25.50;86.70;;;;;;4969893;28;20027;-73
2022/07/18 01:17:49;;;;;;;5.32;3.00;;;25.40;87.20;;;;;;4965547;28;20038;-73
2022/07/18 01:20:15;;;;;;;5.50;3.33;;;25.40;86.70;;;;;;4971367;28;20031;-73
2022/07/18 01:22:41;;;;;;;6.82;3.50;;;25.30;86.70;;;;;;4955355;29;20058;-73
2022/07/18 01:25:08;;;;;;;6.38;2.90;;;25.40;86.70;;;;;;4969842;28;20050;-73
2022/07/18 01:27:34;;;;;;;5.88;3.92;;;25.50;86.50;;;;;;4969240;28;20130;-73
2022/07/18 01:30:00;;;;;;;6.22;3.63;;;25.40;86.60;;;;;;4971974;28;20113;-73
2022/07/18 01:32:25;;;;;;;5.30;3.00;;;25.40;86.70;;;;;;4955327;29;20031;-73
2022/07/18 01:34:51;;;;;;;4.95;3.47;;;25.50;86.60;;;;;;4955319;28;20035;-73
2022/07/18 01:37:17;;;;;;;4.70;3.45;;;25.50;86.50;;;;;;4972175;28;20038;-73
2022/07/18 01:39:44;;;;;;;5.70;3.50;;;25.50;86.50;;;;;;4973215;28;20043;-73
2022/07/18 01:42:10;;;;;;;6.47;3.72;;;25.60;86.40;;;;;;4972255;28;20390;-73
2022/07/18 01:44:37;;;;;;;9.60;3.22;;;25.50;86.40;;;;;;4965911;28;20046;-73
2022/07/18 01:47:05;;;;;;;5.22;3.28;;;25.50;86.10;;;;;;4955862;28;20035;-73
2022/07/18 01:49:32;;;;;;;6.93;3.80;;;25.60;86.30;;;;;;4974043;28;20031;-73
2022/07/18 01:51:58;;;;;;;5.97;3.50;;;25.70;86.10;;;;;;4956860;28;20086;-73
2022/07/18 01:54:26;;;;;;;6.43;3.42;;;25.70;85.80;;;;;;4964044;28;20085;-73
2022/07/18 01:56:52;;;;;;;7.20;3.90;;;25.80;85.60;;;;;;4972137;28;20031;-73
2022/07/18 01:59:18;;;;;;;10.30;3.80;;;25.80;86.00;;;;;;4971362;28;20065;-73
2022/07/18 02:01:44;;;;;;;7.88;3.85;;;25.70;86.30;;;;;;4954686;29;20055;-73
2022/07/18 02:04:11;;;;;;;7.20;4.13;;;25.70;86.80;;;;;;4955200;28;20481;-73
2022/07/18 02:06:37;;;;;;;6.13;3.90;;;25.70;86.90;;;;;;4954656;28;20493;-73
2022/07/18 02:09:04;;;;;;;7.15;3.80;;;25.70;86.80;;;;;;4963182;28;20031;-73
2022/07/18 02:11:30;;;;;;;5.25;3.40;;;25.70;87.20;;;;;;4973814;28;20061;-73
2022/07/18 02:13:55;;;;;;;6.60;3.78;;;25.70;87.30;;;;;;4972271;28;20082;-73
2022/07/18 02:16:21;;;;;;;5.53;3.40;;;25.70;87.40;;;;;;4972289;28;20027;-73
2022/07/18 02:18:47;;;;;;;6.65;3.63;;;25.70;87.50;;;;;;4961934;28;20027;-73
2022/07/18 02:21:13;;;;;;;10.05;4.13;;;25.60;87.50;;;;;;4973446;28;20027;-73
2022/07/18 02:23:40;;;;;;;5.88;3.50;;;25.70;87.40;;;;;;4972769;28;20113;-73
2022/07/18 02:26:06;;;;;;;7.30;3.33;;;25.60;87.50;;;;;;4973737;28;20138;-73
2022/07/18 02:28:32;;;;;;;4.82;3.47;;;25.60;87.50;;;;;;4971010;28;20113;-73
2022/07/18 02:30:58;;;;;;;9.57;3.60;;;25.70;86.80;;;;;;4963820;28;20106;-73
2022/07/18 02:33:23;;;;;;;7.90;3.42;;;25.80;86.70;;;;;;4972680;28;20031;-73
2022/07/18 02:35:49;;;;;;;5.88;3.58;;;25.70;86.90;;;;;;4972822;28;20542;-73
2022/07/18 02:38:14;;;;;;;6.47;3.97;;;25.80;86.90;;;;;;4955263;28;20555;-73
2022/07/18 02:40:40;;;;;;;5.45;3.72;;;25.80;87.50;;;;;;4937234;29;20432;-73
2022/07/18 02:43:06;;;;;;;6.75;3.85;;;25.70;87.50;;;;;;4954867;28;20086;-73
2022/07/18 02:45:32;;;;;;;6.07;4.18;;;25.50;87.60;;;;;;4973967;28;20035;-73
2022/07/18 02:47:57;;;;;;;8.15;4.00;;;25.60;86.90;;;;;;4957944;28;20061;-73
2022/07/18 02:50:23;;;;;;;7.30;4.40;;;25.50;87.20;;;;;;4954651;28;20027;-73
2022/07/18 02:52:50;;;;;;;5.28;3.42;;;25.60;87.70;;;;;;4972833;28;20035;-73
2022/07/18 02:55:16;;;;;;;6.90;4.15;;;25.50;87.80;;;;;;4977054;28;20074;-73
2022/07/18 02:57:41;;;;;;;6.65;3.35;;;25.50;88.00;;;;;;4968782;28;20066;-73
2022/07/18 03:00:10;;;;;;;5.38;3.83;;;25.50;87.80;;;;;;4958256;28;20046;-71
2022/07/18 03:02:36;;;;;;;9.50;4.10;;;25.50;87.80;;;;;;4967566;28;20047;-72
2022/07/18 03:05:03;;;;;;;8.35;4.60;;;25.50;87.10;;;;;;4952781;28;20039;-71
2022/07/18 03:07:29;;;;;;;7.07;4.53;;;25.50;86.80;;;;;;4960994;28;20114;-72
2022/07/18 03:09:55;;;;;;;8.77;4.53;;;25.60;86.80;;;;;;4972220;28;20214;-72
2022/07/18 03:12:21;;;;;;;5.88;3.92;;;25.60;87.00;;;;;;4960386;28;20035;-71
2022/07/18 03:14:46;;;;;;;6.50;3.83;;;25.50;88.20;;;;;;4952976;29;20482;-71
2022/07/18 03:17:12;;;;;;;8.38;4.85;;;25.40;88.10;;;;;;4955644;28;20399;-71
2022/07/18 03:19:38;;;;;;;8.23;4.47;;;25.30;87.60;;;;;;4962815;28;20058;-71
2022/07/18 03:22:04;;;;;;;9.68;4.85;;;25.30;87.40;;;;;;4968718;28;20176;-71
2022/07/18 03:24:30;;;;;;;6.82;4.60;;;25.30;87.20;;;;;;4972317;28;20046;-71
2022/07/18 03:26:56;;;;;;;6.18;4.63;;;25.30;87.30;;;;;;4962976;28;20470;-71
2022/07/18 03:29:21;;;;;;;8.35;4.38;;;25.30;87.20;;;;;;4953183;29;20035;-71
2022/07/18 03:31:47;;;;;;;8.73;3.75;;;25.20;87.70;;;;;;4958333;28;20089;-71
2022/07/18 03:34:13;;;;;;;7.90;4.40;;;25.10;88.10;;;;;;4964265;28;20069;-71
2022/07/18 03:36:39;;;;;;;6.15;4.18;;;24.90;88.50;;;;;;4966019;28;20086;-71
2022/07/18 03:39:05;;;;;;;9.57;3.97;;;24.80;88.70;;;;;;4965305;28;20023;-71
2022/07/18 03:41:31;;;;;;;6.80;4.30;;;24.80;88.70;;;;;;4936188;28;20039;-71
2022/07/18 03:43:57;;;;;;;6.43;4.35;;;24.70;88.90;;;;;;4963177;28;20122;-71
2022/07/18 03:46:23;;;;;;;6.45;4.43;;;24.60;89.10;;;;;;4968472;28;20114;-71
2022/07/18 03:48:48;;;;;;;5.47;4.05;;;24.50;89.40;;;;;;4962518;28;20031;-71
2022/07/18 03:51:14;;;;;;;7.07;4.85;;;24.50;89.50;;;;;;4960397;28;20046;-71
2022/07/18 03:53:40;;;;;;;7.70;4.40;;;24.60;89.20;;;;;;4961086;28;20434;-71
2022/07/18 03:56:06;;;;;;;5.82;4.05;;;24.60;89.10;;;;;;4953584;28;20043;-71
2022/07/18 03:58:32;;;;;;;7.47;4.82;;;24.60;89.10;;;;;;4957543;28;20382;-71
2022/07/18 04:00:58;;;;;;;9.32;4.40;;;24.60;89.20;;;;;;4969375;28;20023;-71
2022/07/18 04:03:24;;;;;;;7.03;4.55;;;24.60;89.20;;;;;;4968050;28;20047;-71
2022/07/18 04:05:50;;;;;;;6.40;4.22;;;24.70;88.90;;;;;;4952486;28;20031;-71
2022/07/18 04:08:15;;;;;;;5.45;3.95;;;24.60;89.10;;;;;;4967176;28;20494;-71
2022/07/18 04:10:41;;;;;;;6.28;4.50;;;24.60;89.20;;;;;;4968527;28;20035;-72
2022/07/18 04:13:08;;;;;;;8.98;4.50;;;24.60;89.30;;;;;;4967665;28;20027;-71
2022/07/18 04:15:34;;;;;;;6.45;3.85;;;24.60;89.60;;;;;;4967824;28;20160;-71
2022/07/18 04:17:59;;;;;;;6.93;4.50;;;24.50;89.80;;;;;;4966070;28;20478;-71
2022/07/18 04:20:25;;;;;;;9.13;4.47;;;24.50;90.00;;;;;;4967669;28;20097;-71
2022/07/18 04:22:59;;;;;;;7.65;4.45;;;24.40;90.10;;;;;;4959455;28;20043;-71
2022/07/18 04:25:26;;;;;;;;;;;24.30;90.10;;;;;;4949540;29;20142;-71
2022/07/18 04:27:52;;;;;;;8.68;4.88;;;24.40;90.30;;;;;;4956134;28;19910;-71
2022/07/18 04:30:22;;;;;;;8.60;4.82;;;24.30;90.40;;;;;;4968546;28;20030;-72
2022/07/18 04:32:48;;;;;;;9.35;5.28;;;24.20;90.40;;;;;;4965096;28;20026;-71
2022/07/18 04:35:14;;;;;;;8.68;3.90;;;24.20;90.50;;;;;;4968198;28;20512;-70
2022/07/18 04:37:40;;;;;;;8.30;5.28;;;24.20;90.50;;;;;;4954483;28;20030;-71
2022/07/18 04:40:08;;;;;;;7.15;5.03;;;24.20;90.60;;;;;;4964446;28;20057;-73
2022/07/18 04:42:34;;;;;;;9.10;4.85;;;24.20;90.70;;;;;;4967147;28;20094;-72
2022/07/18 04:45:00;;;;;;;8.52;4.72;;;24.10;90.80;;;;;;4968633;28;20545;-71
2022/07/18 04:47:27;;;;;;;11.02;4.97;;;24.10;90.80;;;;;;4959108;28;20035;-71
2022/07/18 04:49:53;;;;;;;6.43;4.40;;;24.10;90.90;;;;;;4968262;28;20031;-71
2022/07/18 04:52:19;;;;;;;6.45;4.25;;;24.00;91.00;;;;;;4966948;28;20041;-71
2022/07/18 04:54:45;;;;;;;10.90;4.93;;;24.00;91.10;;;;;;4963106;28;20114;-71
2022/07/18 04:57:11;;;;;;;5.82;4.40;;;24.00;91.10;;;;;;4948679;28;20542;-71
2022/07/18 04:59:41;;;;;;;6.68;4.50;;;24.00;91.00;;;;;;4960712;28;20130;-71
2022/07/18 05:02:08;;;;;;;8.32;4.13;;;24.10;91.00;;;;;;4965427;28;20046;-72
2022/07/18 05:04:34;;;;;;;8.15;4.40;;;24.10;90.80;;;;;;4965803;28;20050;-71
2022/07/18 05:07:00;;;;;;;6.70;4.38;;;24.10;90.70;;;;;;4967757;28;20035;-72
2022/07/18 05:09:27;;;;;;;6.97;4.60;;;24.30;90.60;;;;;;4968619;28;20073;-71
2022/07/18 05:11:52;;;;;;;9.55;5.38;;;24.40;90.50;;;;;;4966404;28;20039;-71
2022/07/18 05:14:18;;;;;;;8.48;4.88;;;24.30;90.50;;;;;;4964581;28;20114;-71
2022/07/18 05:16:44;;;;;;;6.40;4.35;;;24.40;90.40;;;;;;4969718;28;20035;-71
2022/07/18 05:19:09;;;;;;;10.13;4.60;;;24.50;90.60;;;;;;4954591;28;20035;-71
2022/07/18 05:21:35;;;;;;;6.72;4.10;;;24.40;90.80;;;;;;4961194;28;20031;-71
2022/07/18 05:24:01;;;;;;;7.13;4.72;;;24.50;90.70;;;;;;4961678;28;20122;-71
2022/07/18 05:26:26;;;;;;;5.70;4.07;;;24.50;90.70;;;;;;4960865;28;20066;-71
2022/07/18 05:28:52;;;;;;;8.57;5.28;;;24.60;90.60;;;;;;4969856;28;20628;-71
2022/07/18 05:31:18;;;;;;;6.03;4.40;;;24.60;90.80;;;;;;4968987;28;20577;-71
2022/07/18 05:33:43;;;;;;;12.07;5.75;;;24.50;91.00;;;;;;4971229;28;20267;-73
2022/07/18 05:36:10;;;;;;;6.85;4.38;;;24.70;91.30;;;;;;4972696;28;20039;-71
2022/07/18 05:38:36;;;;;;;7.97;4.70;;;24.80;91.30;;;;;;4970168;28;20100;-71
2022/07/18 05:41:02;;;;;;;7.35;4.75;;;24.80;91.30;;;;;;4960800;28;20023;-71
2022/07/18 05:43:27;;;;;;;15.13;5.40;;;24.90;91.20;;;;;;4961092;28;20035;-71
2022/07/18 05:45:53;;;;;;;7.05;4.68;;;24.90;91.60;;;;;;4950785;29;20043;-71
2022/07/18 05:48:19;;;;;;;8.10;5.05;;;25.00;91.40;;;;;;4949707;29;20031;-71
2022/07/18 05:50:44;;;;;;;7.78;4.88;;;25.10;91.20;;;;;;4947262;29;20605;-71
2022/07/18 05:53:11;;;;;;;7.88;4.70;;;25.10;91.10;;;;;;4947362;28;20086;-71
2022/07/18 05:55:37;;;;;;;7.68;4.90;;;25.20;91.50;;;;;;4948821;28;20088;-71
2022/07/18 05:58:03;;;;;;;5.38;4.18;;;25.20;91.00;;;;;;4948245;29;20043;-71
2022/07/18 06:00:29;;;;;;;6.95;4.38;;;25.30;90.90;;;;;;4947728;29;20031;-71
2022/07/18 06:02:55;;;;;;;5.70;4.15;;;25.40;90.90;;;;;;4947209;29;20126;-71
2022/07/18 06:05:21;;;;;;;6.85;4.38;;;25.50;91.00;;;;;;4964002;28;20125;-71
2022/07/18 06:07:47;;;;;;;8.45;4.57;;;25.50;91.30;;;;;;4966159;28;20055;-71
2022/07/18 06:10:13;;;;;;;7.07;4.40;;;25.30;91.70;;;;;;4951600;28;20039;-71
2022/07/18 06:12:39;;;;;;;8.15;4.72;;;25.30;91.20;;;;;;4946610;29;20027;-71
2022/07/18 06:15:07;;;;;;;8.95;4.45;;;25.50;91.00;;;;;;4946986;29;20426;-71
2022/07/18 06:17:33;;;;;;;10.07;4.30;;;25.60;91.60;;;;;;4954704;28;20031;-72
2022/07/18 06:19:58;;;;;;;5.95;4.88;;;25.70;91.30;;;;;;4963738;28;20074;-72
2022/07/18 06:22:24;;;;;;;7.32;4.45;;;25.80;91.30;;;;;;4965744;28;20062;-71
2022/07/18 06:24:50;;;;;;;7.07;4.85;;;25.90;90.90;;;;;;4954877;28;20046;-72
2022/07/18 06:27:16;;;;;;;7.78;4.38;;;26.00;90.90;;;;;;4949484;29;20050;-71
2022/07/18 06:29:42;;;;;;;7.22;4.45;;;26.10;90.70;;;;;;4949562;29;20110;-71
2022/07/18 06:32:07;;;;;;;8.95;4.80;;;26.20;90.20;;;;;;4950620;29;20031;-71
2022/07/18 06:34:33;;;;;;;7.13;4.40;;;26.20;89.80;;;;;;4952576;28;20471;-71
2022/07/18 06:36:58;;;;;;;9.63;5.00;;;26.30;90.70;;;;;;4952586;29;20391;-71
2022/07/18 06:39:24;;;;;;;8.15;4.88;;;26.40;90.90;;;;;;4952936;29;20032;-71
2022/07/18 06:41:50;;;;;;;9.10;4.28;;;26.40;90.40;;;;;;4954232;28;20625;-71
2022/07/18 06:44:16;;;;;;;6.07;4.70;;;26.50;90.20;;;;;;4970533;28;20046;-71
2022/07/18 06:46:41;;;;;;;5.68;3.83;;;26.40;90.50;;;;;;4968062;28;20035;-71
2022/07/18 06:49:08;;;;;;;7.32;4.97;;;26.40;90.50;;;;;;4972102;28;20153;-71
2022/07/18 06:51:33;;;;;;;11.25;4.63;;;26.30;90.20;;;;;;4972152;28;20034;-71
2022/07/18 06:53:59;;;;;;;8.40;5.07;;;26.30;90.40;;;;;;4971388;28;20057;-71
2022/07/18 06:56:25;;;;;;;7.63;4.75;;;26.30;90.50;;;;;;4969635;28;20027;-71
2022/07/18 06:58:52;;;;;;;7.30;4.65;;;26.50;90.40;;;;;;4970392;28;20506;-72
2022/07/18 07:01:19;;;;;;;5.57;4.20;;;26.60;90.60;;;;;;4929397;28;1111684;-71
2022/07/18 07:03:45;;;;;;;6.97;4.53;;;26.60;90.70;;;;;;4969598;28;20559;-71
2022/07/18 07:06:12;;;;;;;7.47;5.18;;;26.90;90.40;;;;;;4955458;28;20500;-71
2022/07/18 07:08:37;;;;;;;6.07;4.75;;;27.10;89.50;;;;;;4967923;28;20031;-71
2022/07/18 07:11:03;;;;;;;9.40;4.70;;;27.30;89.50;;;;;;4967174;28;20035;-71
2022/07/18 07:13:29;;;;;;;6.70;4.25;;;27.50;89.10;;;;;;4969625;28;20027;-71
2022/07/18 07:15:54;;;;;;;6.35;4.63;;;27.70;88.60;;;;;;4965162;28;20191;-71
2022/07/18 07:18:20;;;;;;;6.45;4.53;;;27.80;88.10;;;;;;4968757;28;20109;-72
2022/07/18 07:20:46;;;;;;;13.30;5.30;;;28.00;87.20;;;;;;4969444;28;20854;-71
2022/07/18 07:23:12;;;;;;;7.50;4.35;;;28.20;87.70;;;;;;4967672;28;20038;-71
2022/07/18 07:25:38;;;;;;;8.57;4.50;;;28.40;87.50;;;;;;4968666;28;20031;-71
2022/07/18 07:28:05;;;;;;;6.50;4.57;;;28.50;85.60;;;;;;4966561;28;20031;-70
2022/07/18 07:30:32;;;;;;;7.32;4.93;;;28.60;85.30;;;;;;4965727;28;20493;-71
2022/07/18 07:32:57;;;;;;;8.90;4.80;;;29.10;86.50;;;;;;4969707;28;20034;-71
2022/07/18 07:35:23;;;;;;;6.68;4.40;;;29.30;85.00;;;;;;4968894;28;20027;-71
2022/07/18 07:37:51;;;;;;;7.93;5.22;;;30.20;84.30;;;;;;4968803;28;20023;-71
2022/07/18 07:40:17;;;;;;;7.80;4.57;;;30.90;82.90;;;;;;4967946;28;20422;-71
2022/07/18 07:42:43;;;;;;;9.35;4.88;;;31.30;81.50;;;;;;4968973;28;20532;-71
2022/07/18 07:45:10;;;;;;;21.77;5.07;;;31.90;81.40;;;;;;4968661;28;20113;-71
2022/07/18 07:47:37;;;;;;;6.63;4.63;;;32.70;79.30;;;;;;4968733;28;20038;-71
2022/07/18 07:50:04;;;;;;;6.80;4.43;;;33.60;78.90;;;;;;4965611;28;20034;-71
2022/07/18 07:52:30;;;;;;;7.18;4.40;;;33.40;78.40;;;;;;4949551;29;20043;-72
2022/07/18 07:54:56;;;;;;;7.65;4.68;;;32.90;78.80;;;;;;4949598;29;20074;-71
2022/07/18 07:57:22;;;;;;;7.18;4.65;;;32.60;78.70;;;;;;4949922;29;20039;-71
2022/07/18 07:59:47;;;;;;;5.78;4.13;;;32.50;79.60;;;;;;4949370;28;20526;-71
2022/07/18 08:02:15;;;;;;;9.73;4.78;;;32.70;78.10;;;;;;4949656;29;20059;-71
2022/07/18 08:04:41;;;;;;;8.88;5.32;;;32.60;79.30;;;;;;4950037;29;20043;-71
2022/07/18 08:07:07;;;;;;;7.95;4.40;;;32.80;78.70;;;;;;4949949;29;20039;-71
2022/07/18 08:09:32;;;;;;;8.05;5.13;;;32.10;78.30;;;;;;4950084;29;20042;-71
2022/07/18 08:11:58;;;;;;;9.82;4.85;;;31.50;80.20;;;;;;4949453;28;20063;-71
2022/07/18 08:14:24;;;;;;;8.68;4.50;;;31.30;79.90;;;;;;4949449;29;20065;-71
2022/07/18 08:16:49;;;;;;;7.40;5.03;;;31.10;80.70;;;;;;4949733;29;20463;-71
2022/07/18 08:19:15;;;;;;;7.22;5.07;;;30.80;80.80;;;;;;4949675;28;20082;-71
2022/07/18 08:21:41;;;;;;;9.50;4.65;;;30.20;82.20;;;;;;4949746;29;20035;-71
2022/07/18 08:24:06;;;;;;;7.00;4.30;;;30.30;81.40;;;;;;4949131;29;20455;-72
2022/07/18 08:26:35;;;;;;;6.57;4.45;;;29.90;81.90;;;;;;4949157;29;20027;-71
2022/07/18 08:29:01;;;;;;;7.93;4.80;;;30.60;82.10;;;;;;4948325;28;20019;-71
2022/07/18 08:31:27;;;;;;;8.95;4.03;;;30.90;81.20;;;;;;4949150;29;20111;-71
2022/07/18 08:33:53;;;;;;;8.75;4.68;;;30.80;81.10;;;;;;4948998;29;20114;-71
2022/07/18 08:36:20;;;;;;;6.00;4.22;;;30.90;81.30;;;;;;4948788;29;20070;-71
2022/07/18 08:38:46;;;;;;;7.88;4.55;;;30.80;80.40;;;;;;4953170;28;20022;-71
2022/07/18 08:41:11;;;;;;;8.13;4.10;;;30.90;79.80;;;;;;4968230;28;20113;-71
2022/07/18 08:43:38;;;;;;;7.72;4.60;;;30.80;79.00;;;;;;4966440;28;20054;-72
2022/07/18 08:46:05;;;;;;;8.75;4.47;;;30.80;79.50;;;;;;4965231;28;20069;-71
2022/07/18 08:48:32;;;;;;;6.65;4.78;;;30.70;79.20;;;;;;4967379;28;20089;-71
2022/07/18 08:50:59;;;;;;;6.63;4.25;;;30.40;79.70;;;;;;4967916;28;20433;-71
2022/07/18 08:53:25;;;;;;;7.28;4.97;;;30.40;80.60;;;;;;4968284;28;20025;-71
2022/07/18 08:55:51;;;;;;;6.45;4.75;;;30.50;79.70;;;;;;4959375;28;20114;-71
2022/07/18 08:58:17;;;;;;;7.22;4.13;;;30.60;79.50;;;;;;4949106;29;20114;-71
2022/07/18 09:00:44;;;;;;;7.10;5.18;;;30.80;79.90;;;;;;4951851;29;20038;-71
2022/07/18 09:03:10;;;;;;;7.20;4.75;;;30.70;80.80;;;;;;4951555;29;20075;-71
2022/07/18 09:05:37;;;;;;;7.03;4.55;;;31.00;80.20;;;;;;4951740;28;20065;-71
2022/07/18 09:08:19;;;;;;;9.57;3.95;;;31.20;79.90;;;;;;4951787;29;20027;-71
2022/07/18 09:10:53;;;;;;;5.95;4.70;;;31.10;78.40;;;;;;4951732;29;20055;-71
2022/07/18 09:13:34;;;;;;;6.95;4.88;;;30.90;78.80;;;;;;4951324;29;20028;-71
2022/07/18 09:16:00;;;;;;;5.88;4.15;;;31.40;79.70;;;;;;4956598;28;20500;-71
2022/07/18 09:18:30;;;;;;;18.73;4.90;;;31.30;79.60;;;;;;4968935;28;20038;-71
2022/07/18 09:21:10;;;;;;;16.65;5.18;;;31.50;79.80;;;;;;4952479;28;20487;-71
2022/07/18 09:23:39;;;;;;;6.57;4.20;;;31.70;78.90;;;;;;4970509;28;20525;-71
2022/07/18 09:26:05;;;;;;;6.22;4.47;;;31.70;77.90;;;;;;4970545;28;20035;-71
2022/07/18 09:28:49;;;;;;;8.23;4.03;;;31.70;78.20;;;;;;4970153;28;20462;-71
2022/07/18 09:31:27;;;;;;;8.48;4.22;;;32.00;77.90;;;;;;4969410;28;20169;-71
2022/07/18 09:33:58;;;;;;;7.05;4.30;;;32.20;78.60;;;;;;4968725;28;20038;-71
2022/07/18 09:36:24;;;;;;;7.93;4.80;;;32.00;78.80;;;;;;4970768;28;20030;-71
2022/07/18 09:38:51;;;;;;;5.15;4.05;;;32.20;78.60;;;;;;4970644;28;20465;-71
2022/07/18 09:41:31;;;;;;;6.22;4.47;;;32.30;78.00;;;;;;4970650;28;20035;-71
2022/07/18 09:43:57;;;;;;;6.93;4.05;;;32.10;77.80;;;;;;4952183;28;20035;-71
2022/07/18 09:46:22;;;;;;;6.38;4.15;;;32.00;78.40;;;;;;4951107;29;20026;-71
2022/07/18 09:49:07;;;;;;;8.05;4.18;;;32.20;78.50;;;;;;4951397;29;20036;-71
2022/07/18 09:51:32;;;;;;;9.18;4.68;;;32.30;78.10;;;;;;4951335;29;20023;-71
2022/07/18 09:54:01;;;;;;;6.60;4.70;;;32.50;78.00;;;;;;4966915;28;20045;-71
2022/07/18 09:56:27;;;;;;;6.60;4.18;;;32.20;77.90;;;;;;4970218;28;20023;-71
2022/07/18 09:58:55;;;;;;;10.60;3.75;;;32.00;77.40;;;;;;4970091;28;20533;-71
2022/07/18 10:01:22;;;;;;;8.93;4.88;;;32.00;77.00;;;;;;4959463;28;20039;-71
2022/07/18 10:03:48;;;;;;;6.03;4.85;;;32.30;78.20;;;;;;4950517;29;20727;-71
2022/07/18 10:06:16;;;;;;;7.20;4.80;;;32.30;78.90;;;;;;4950216;29;20063;-71
2022/07/18 10:08:42;;;;;;;10.13;4.90;;;32.70;79.00;;;;;;4950673;29;20024;-71
2022/07/18 10:11:08;;;;;;;6.50;4.68;;;32.90;78.90;;;;;;4956902;28;20057;-71
2022/07/18 10:13:35;;;;;;;7.43;4.90;;;32.90;79.10;;;;;;4969908;28;20026;-71
2022/07/18 10:16:02;;;;;;;9.48;4.97;;;33.00;78.60;;;;;;4969542;28;20062;-71
2022/07/18 10:18:30;;;;;;;8.40;5.18;;;32.70;77.80;;;;;;4969818;28;20037;-71
2022/07/18 10:21:01;;;;;;;9.80;4.82;;;32.80;76.70;;;;;;4963711;28;20042;-71
2022/07/18 10:23:27;;;;;;;10.30;5.13;;;32.90;76.50;;;;;;4965327;28;20039;-71
2022/07/18 10:26:13;;;;;;;8.02;6.03;;;32.80;76.00;;;;;;4970013;28;21006;-71
2022/07/18 10:28:59;;;;;;;6.53;4.68;;;33.30;76.50;;;;;;4970073;28;20033;-71
2022/07/18 10:31:31;;;;;;;6.70;4.93;;;33.40;77.40;;;;;;4960157;28;20384;-71
2022/07/18 10:34:06;;;;;;;8.15;4.93;;;33.50;77.00;;;;;;4950271;29;20114;-71
2022/07/18 10:36:36;;;;;;;7.90;5.88;;;33.60;76.60;;;;;;4950394;29;20034;-71
2022/07/18 10:39:20;;;;;;;7.07;5.68;;;33.40;75.50;;;;;;4950883;29;20032;-71
2022/07/18 10:41:51;;;;;;;8.10;5.15;;;33.30;75.90;;;;;;4960901;28;20062;-72
2022/07/18 10:44:29;;;;;;;9.25;5.95;;;33.20;75.50;;;;;;4969426;28;20074;-71
2022/07/18 10:47:09;;;;;;;10.65;5.22;;;33.40;75.90;;;;;;4969972;28;20482;-71
2022/07/18 10:49:49;;;;;;;6.72;4.88;;;33.80;76.20;;;;;;4969743;28;20732;-71
2022/07/18 10:52:33;;;;;;;6.30;4.95;;;34.00;75.60;;;;;;4967616;28;20457;-72
2022/07/18 10:55:05;;;;;;;13.80;5.80;;;33.70;75.20;;;;;;4950574;29;20031;-71
2022/07/18 10:57:33;;;;;;;7.30;5.47;;;33.80;75.10;;;;;;4950014;29;20123;-71
2022/07/18 11:00:32;;;;;;;8.25;6.28;;;33.70;74.30;;;;;;4949710;28;20474;-71
2022/07/18 11:03:00;;;;;;;6.28;4.78;;;33.70;75.50;;;;;;4947734;29;20394;-71
2022/07/18 11:05:26;;;;;;;7.85;4.55;;;33.90;74.10;;;;;;4949903;29;20110;-71
2022/07/18 11:07:58;;;;;;;9.35;5.40;;;34.00;74.50;;;;;;4950076;29;20106;-71
2022/07/18 11:10:43;;;;;;;8.13;5.15;;;34.30;75.20;;;;;;4949878;28;20023;-71
2022/07/18 11:13:28;;;;;;;9.65;5.30;;;34.30;74.70;;;;;;4962022;28;20065;-72
2022/07/18 11:16:07;;;;;;;14.95;5.97;;;34.40;74.20;;;;;;4973162;28;20077;-71
2022/07/18 11:18:53;;;;;;;8.32;5.68;;;34.00;74.70;;;;;;4973091;28;20056;-71
2022/07/18 11:21:22;;;;;;;11.35;5.20;;;34.40;74.70;;;;;;4953137;28;20037;-71
2022/07/18 11:23:50;;;;;;;10.60;5.35;;;34.40;73.80;;;;;;4953458;29;20035;-72
2022/07/18 11:26:21;;;;;;;8.80;5.38;;;34.60;74.40;;;;;;4952672;29;20463;-71
2022/07/18 11:28:51;;;;;;;66.28;9.75;;;34.30;74.00;;;;;;4952413;28;20110;-72
2022/07/18 11:31:16;;;;;;;9.15;5.40;;;34.60;72.70;;;;;;4970813;28;20271;-71
2022/07/18 11:33:47;;;;;;;10.75;5.35;;;34.80;74.10;;;;;;4971634;28;20262;-71
2022/07/18 11:36:16;;;;;;;12.07;5.53;;;34.80;73.80;;;;;;4971806;28;20033;-71
2022/07/18 11:38:57;;;;;;;7.85;5.70;;;34.70;73.20;;;;;;4971727;28;20031;-71
2022/07/18 11:41:23;;;;;;;7.22;5.38;;;34.90;73.10;;;;;;4952398;29;20074;-71
2022/07/18 11:43:51;;;;;;;7.72;5.10;;;34.50;73.00;;;;;;4952203;29;20027;-72
2022/07/18 11:46:19;;;;;;;6.18;4.97;;;34.50;73.40;;;;;;4952394;29;20640;-71
2022/07/18 11:48:47;;;;;;;6.40;5.40;;;34.90;73.50;;;;;;4952474;29;20023;-72
2022/07/18 11:51:19;;;;;;;6.30;5.03;;;35.40;73.20;;;;;;4952566;28;20063;-71
2022/07/18 11:53:54;;;;;;;10.70;5.27;;;35.10;72.00;;;;;;4951536;28;20024;-71
2022/07/18 11:56:21;;;;;;;7.80;5.45;;;34.90;72.20;;;;;;4951984;29;20023;-72
2022/07/18 11:58:49;;;;;;;8.43;5.35;;;35.30;73.30;;;;;;4951832;29;20583;-72
2022/07/18 12:01:16;;;;;;;8.98;5.78;;;35.40;72.40;;;;;;4951557;28;20032;-72
2022/07/18 12:03:44;;;;;;;12.25;5.10;;;35.50;72.60;;;;;;4951315;29;20032;-72
2022/07/18 12:06:21;;;;;;;10.65;5.40;;;35.40;72.00;;;;;;4951482;29;20243;-72
2022/07/18 12:08:52;;;;;;;8.95;5.28;;;35.40;72.20;;;;;;4951536;29;20027;-72
2022/07/18 12:11:29;;;;;;;8.15;5.13;;;35.30;72.50;;;;;;4951354;28;20031;-72
2022/07/18 12:13:56;;;;;;;8.05;5.55;;;35.40;71.80;;;;;;4951607;29;20023;-72
2022/07/18 12:16:26;;;;;;;6.35;5.30;;;35.40;72.10;;;;;;4951583;29;20039;-72
2022/07/18 12:19:02;;;;;;;7.40;6.22;;;35.60;71.70;;;;;;4951489;29;20106;-72
2022/07/18 12:21:48;;;;;;;6.60;4.80;;;35.00;71.30;;;;;;4969575;28;20513;-72
2022/07/18 12:24:18;;;;;;;5.75;4.85;;;35.10;71.10;;;;;;4970152;28;20378;-72
2022/07/18 12:26:44;;;;;;;8.27;5.55;;;35.30;71.00;;;;;;4970954;28;20496;-73
2022/07/18 12:29:10;;;;;;;9.88;5.13;;;35.20;71.00;;;;;;4971242;28;20191;-72
2022/07/18 12:31:44;;;;;;;7.50;4.82;;;34.90;71.00;;;;;;4951368;28;20443;-72
2022/07/18 12:34:14;;;;;;;8.82;4.65;;;35.30;71.70;;;;;;4950944;29;20062;-73
2022/07/18 12:36:57;;;;;;;10.02;5.35;;;35.50;70.60;;;;;;4951080;29;20035;-72
2022/07/18 12:39:33;;;;;;;13.80;4.50;;;35.00;70.30;;;;;;4960922;28;20038;-72
2022/07/18 12:42:00;;;;;;;9.02;4.85;;;34.90;70.30;;;;;;4970154;28;20019;-72
2022/07/18 12:44:27;;;;;;;13.35;5.00;;;35.00;70.30;;;;;;4970244;28;20421;-72
2022/07/18 12:46:53;;;;;;;6.78;5.55;;;35.10;70.10;;;;;;4969933;28;20038;-72
2022/07/18 12:49:19;;;;;;;8.52;5.43;;;35.20;70.40;;;;;;4958770;28;20062;-72
2022/07/18 12:51:45;;;;;;;6.32;5.50;;;35.20;70.10;;;;;;4950457;29;20478;-72